createdAt,value
2022-11-22T00:01:06.062Z,100545.09
2022-11-22T00:03:36.606Z,100544.69
2022-11-22T00:06:07.809Z,100540.47
2022-11-22T00:08:39.109Z,100543.16
2022-11-22T00:11:10.240Z,100552.47
2022-11-22T00:13:41.580Z,100558.28
2022-11-22T00:16:14.014Z,100567.81
2022-11-22T00:18:46.108Z,100571.75
2022-11-22T00:21:17.172Z,100572.78
2022-11-22T00:23:48.301Z,100569.50
2022-11-22T00:26:19.686Z,100581.06
2022-11-22T00:28:51.177Z,100577.34
2022-11-22T00:31:22.352Z,100590.00
2022-11-22T00:33:53.471Z,100586.25
2022-11-22T00:36:25.209Z,100581.88
2022-11-22T00:38:56.108Z,100582.78
2022-11-22T00:41:27.031Z,100566.97
2022-11-22T00:43:58.807Z,100586.44
2022-11-22T00:46:29.983Z,100580.63
2022-11-22T00:49:01.559Z,100589.13
2022-11-22T00:51:32.775Z,100580.22
2022-11-22T00:54:04.272Z,100593.94
2022-11-22T00:56:35.712Z,100607.59
2022-11-22T00:59:07.076Z,100612.59
2022-11-22T01:01:38.201Z,100621.09
2022-11-22T01:04:09.367Z,100603.44
2022-11-22T01:06:40.634Z,100597.44
2022-11-22T01:09:12.781Z,100570.91
2022-11-22T01:11:44.493Z,100638.59
2022-11-22T01:14:16.111Z,100629.81
2022-11-22T01:16:48.072Z,100642.00
2022-11-22T01:19:19.222Z,100649.06
2022-11-22T01:21:50.542Z,100657.78
2022-11-22T01:24:21.678Z,100642.03
2022-11-22T01:26:52.851Z,100663.81
2022-11-22T01:29:24.525Z,100669.22
2022-11-22T01:31:55.692Z,100668.16
2022-11-22T01:34:27.420Z,100669.00
2022-11-22T01:36:58.807Z,100678.78
2022-11-22T01:39:30.116Z,100684.25
2022-11-22T01:42:01.404Z,100688.97
2022-11-22T01:44:34.899Z,100699.34
2022-11-22T01:47:23.258Z,100705.59
2022-11-22T01:49:59.475Z,100645.41
2022-11-22T01:52:34.577Z,100684.00
2022-11-22T01:55:13.327Z,100706.81
2022-11-22T01:57:46.691Z,100710.13
2022-11-22T02:00:19.694Z,100629.25
2022-11-22T02:02:58.149Z,100637.09
2022-11-22T02:05:34.997Z,100716.13
2022-11-22T02:08:29.789Z,100718.44
2022-11-22T02:11:04.177Z,100710.94
2022-11-22T02:13:40.916Z,100555.44
2022-11-22T02:16:13.695Z,100621.34
2022-11-22T02:18:45.151Z,100708.03
2022-11-22T02:21:16.474Z,100707.19
2022-11-22T02:24:07.062Z,100705.13
2022-11-22T02:26:38.797Z,100695.13
2022-11-22T02:29:10.614Z,100688.91
2022-11-22T02:31:49.432Z,100697.84
2022-11-22T02:34:20.537Z,100696.78
2022-11-22T02:36:55.376Z,100615.31
2022-11-22T02:39:33.020Z,100686.16
2022-11-22T02:42:04.974Z,100680.13
2022-11-22T02:44:36.665Z,100672.25
2022-11-22T02:47:08.607Z,100665.59
2022-11-22T02:49:39.685Z,100671.00
2022-11-22T02:52:11.506Z,100669.94
2022-11-22T02:54:42.576Z,100663.91
2022-11-22T02:57:13.906Z,100666.03
2022-11-22T02:59:45.571Z,100647.75
2022-11-22T03:02:16.723Z,100653.09
2022-11-22T03:04:49.253Z,100659.94
2022-11-22T03:07:20.903Z,100659.31
2022-11-22T03:09:52.186Z,100657.63
2022-11-22T03:12:23.353Z,100664.28
2022-11-22T03:14:54.893Z,100658.88
2022-11-22T03:17:26.272Z,100651.41
2022-11-22T03:19:57.325Z,100651.59
2022-11-22T03:22:28.509Z,100642.28
2022-11-22T03:24:59.700Z,100642.25
2022-11-22T03:27:30.876Z,100651.59
2022-11-22T03:30:02.230Z,100648.91
2022-11-22T03:32:34.000Z,100619.81
2022-11-22T03:35:06.051Z,100640.56
2022-11-22T03:37:37.124Z,100616.06
2022-11-22T03:40:09.011Z,100630.53
2022-11-22T03:42:41.077Z,100630.09
2022-11-22T03:45:12.632Z,100612.25
2022-11-22T03:47:43.827Z,100625.88
2022-11-22T03:50:14.988Z,100608.66
2022-11-22T03:52:46.072Z,100608.84
2022-11-22T03:55:17.291Z,100616.69
2022-11-22T03:57:48.723Z,100610.84
2022-11-22T04:00:20.574Z,100610.41
2022-11-22T04:02:51.927Z,100608.31
2022-11-22T04:05:23.800Z,100601.63
2022-11-22T04:08:03.811Z,100595.41
2022-11-22T04:10:34.968Z,100595.31
2022-11-22T04:13:06.976Z,100601.34
2022-11-22T04:15:39.406Z,100597.81
2022-11-22T04:18:15.046Z,100554.66
2022-11-22T04:21:04.426Z,100579.47
2022-11-22T04:23:35.523Z,100578.59
2022-11-22T04:26:06.720Z,100577.38
2022-11-22T04:29:08.268Z,100553.94
2022-11-22T04:31:47.318Z,100560.25
2022-11-22T04:34:18.451Z,100554.41
2022-11-22T04:36:50.040Z,100552.31
2022-11-22T04:39:21.279Z,100549.41
2022-11-22T04:42:16.070Z,100469.88
2022-11-22T04:44:47.546Z,100530.69
2022-11-22T04:47:38.309Z,100452.09
2022-11-22T04:50:30.594Z,100372.22
2022-11-22T04:53:01.798Z,100523.19
2022-11-22T04:55:33.216Z,100512.81
2022-11-22T04:58:04.834Z,100517.31
2022-11-22T05:00:36.136Z,100510.84
2022-11-22T05:03:07.805Z,100508.94
2022-11-22T05:05:44.282Z,100517.69
2022-11-22T05:08:16.199Z,100495.22
2022-11-22T05:11:01.294Z,100494.38
2022-11-22T05:13:41.473Z,100493.13
2022-11-22T05:16:16.308Z,100333.09
2022-11-22T05:19:00.400Z,100473.34
2022-11-22T05:21:32.346Z,100459.88
2022-11-22T05:24:04.264Z,100426.00
2022-11-22T05:26:38.340Z,100451.16
2022-11-22T05:29:11.881Z,100460.66
2022-11-22T05:31:48.351Z,100453.56
2022-11-22T05:34:22.317Z,100449.81
2022-11-22T05:36:53.396Z,100447.31
2022-11-22T05:39:24.441Z,100450.28
2022-11-22T05:41:58.564Z,100449.00
2022-11-22T05:44:29.899Z,100439.81
2022-11-22T05:47:02.610Z,100429.00
2022-11-22T05:49:34.698Z,100429.81
2022-11-22T05:52:06.682Z,100426.03
2022-11-22T05:54:37.379Z,100433.50
2022-11-22T05:57:08.583Z,100415.69
2022-11-22T05:59:43.960Z,100414.66
2022-11-22T06:02:15.748Z,100410.66
2022-11-22T06:04:46.974Z,100404.41
2022-11-22T06:07:18.624Z,100413.38
2022-11-22T06:09:49.761Z,100409.81
2022-11-22T06:12:21.000Z,100394.03
2022-11-22T06:14:52.332Z,100388.63
2022-11-22T06:17:23.836Z,100389.22
2022-11-22T06:19:54.928Z,100370.13
2022-11-22T06:22:25.965Z,100368.03
2022-11-22T06:24:57.205Z,100376.31
2022-11-22T06:27:29.365Z,100358.75
2022-11-22T06:30:00.446Z,100365.69
2022-11-22T06:32:35.445Z,100374.63
2022-11-22T06:35:06.721Z,100348.63
2022-11-22T06:37:37.945Z,100362.31
2022-11-22T06:40:13.023Z,100348.19
2022-11-22T06:42:44.148Z,100350.66
2022-11-22T06:45:15.246Z,100339.91
2022-11-22T06:47:46.554Z,100351.47
2022-11-22T06:50:21.782Z,100346.06
2022-11-22T06:52:56.657Z,100337.50
2022-11-22T06:55:49.500Z,100337.50
2022-11-22T06:58:19.114Z,100310.03
2022-11-22T07:00:50.676Z,100266.88
2022-11-22T07:03:21.984Z,100321.72
2022-11-22T07:05:54.079Z,100314.41
2022-11-22T07:08:25.892Z,100296.63
2022-11-22T07:10:57.079Z,100293.59
2022-11-22T07:13:28.543Z,100293.59
2022-11-22T07:16:02.540Z,100289.03
2022-11-22T07:18:34.409Z,100288.19
2022-11-22T07:21:12.255Z,100312.31
2022-11-22T07:23:45.531Z,100197.88
2022-11-22T07:26:18.213Z,100291.94
2022-11-22T07:28:50.826Z,100282.06
2022-11-22T07:31:22.769Z,100288.19
2022-11-22T07:33:53.418Z,100292.75
2022-11-22T07:36:24.744Z,100295.13
2022-11-22T07:38:55.986Z,100299.00
2022-11-22T07:41:27.433Z,100288.63
2022-11-22T07:43:59.042Z,100287.81
2022-11-22T07:46:32.837Z,100287.00
2022-11-22T07:49:04.506Z,100291.34
2022-11-22T07:51:35.931Z,100273.28
2022-11-22T07:54:07.139Z,100282.84
2022-11-22T07:56:38.330Z,100293.81
2022-11-22T07:59:09.467Z,100298.84
2022-11-22T08:01:40.648Z,100295.56
2022-11-22T08:04:11.815Z,100305.44
2022-11-22T08:06:43.045Z,100296.50
2022-11-22T08:09:14.251Z,100283.59
2022-11-22T08:11:45.520Z,100276.97
2022-11-22T08:14:16.754Z,100304.31
2022-11-22T08:16:48.208Z,100314.88
2022-11-22T08:19:20.915Z,100323.56
2022-11-22T08:21:58.140Z,100324.59
2022-11-22T08:24:29.663Z,100324.59
2022-11-22T08:27:00.710Z,100310.66
2022-11-22T08:29:33.790Z,100320.09
2022-11-22T08:32:04.879Z,100296.22
2022-11-22T08:34:38.142Z,100333.44
2022-11-22T08:37:10.038Z,100339.19
2022-11-22T08:39:41.285Z,100293.38
2022-11-22T08:42:12.946Z,100343.41
2022-11-22T08:44:44.201Z,100342.38
2022-11-22T08:47:15.220Z,100324.03
2022-11-22T08:49:46.541Z,100343.81
2022-11-22T08:52:17.681Z,100279.44
2022-11-22T08:54:51.952Z,100342.19
2022-11-22T08:57:23.112Z,100338.88
2022-11-22T08:59:54.412Z,100326.41
2022-11-22T09:02:25.854Z,100328.31
2022-11-22T09:04:56.940Z,100331.00
2022-11-22T09:10:19.066Z,100338.97
2022-11-22T09:12:50.508Z,100346.16
2022-11-22T09:15:21.577Z,100358.59
2022-11-22T09:17:53.044Z,100350.03
2022-11-22T09:20:24.482Z,100359.66
2022-11-22T09:22:55.809Z,100361.63
2022-11-22T09:25:26.999Z,100364.38
2022-11-22T09:28:01.449Z,100370.84
2022-11-22T09:30:33.526Z,100369.41
2022-11-22T09:33:05.457Z,100370.47
2022-11-22T09:35:36.635Z,100371.31
2022-11-22T09:38:09.849Z,100373.19
2022-11-22T09:40:41.008Z,100376.97
2022-11-22T09:43:53.568Z,100368.00
2022-11-22T09:46:34.218Z,100358.53
2022-11-22T09:49:29.078Z,100243.88
2022-11-22T09:52:22.793Z,100398.41
2022-11-22T09:54:59.585Z,100405.09
2022-11-22T09:57:49.609Z,100405.16
2022-11-22T10:00:29.266Z,100350.66
2022-11-22T10:03:12.256Z,100431.06
2022-11-22T10:06:00.015Z,100445.03
2022-11-22T10:08:49.382Z,100451.09
2022-11-22T10:11:59.209Z,100447.78
2022-11-22T10:14:46.443Z,100429.34
2022-11-22T10:17:20.190Z,100457.94
2022-11-22T10:20:05.654Z,100473.09
2022-11-22T10:22:37.531Z,100477.06
2022-11-22T10:25:34.428Z,100486.88
2022-11-22T10:28:41.141Z,100484.81
2022-11-22T10:31:25.173Z,100496.19
2022-11-22T10:33:57.452Z,100497.88
2022-11-22T10:36:38.580Z,100404.72
2022-11-22T10:39:32.967Z,100491.03
2022-11-22T10:42:21.397Z,100494.09
2022-11-22T10:45:37.767Z,100492.28
2022-11-22T10:48:18.008Z,100496.44
2022-11-22T10:50:55.090Z,100501.00
2022-11-22T10:53:51.464Z,100499.34
2022-11-22T10:56:43.670Z,100498.50
2022-11-22T10:59:48.639Z,100503.16
2022-11-22T11:02:55.294Z,100488.47
2022-11-22T11:05:37.441Z,100504.91
2022-11-22T11:08:39.221Z,100504.50
2022-11-22T11:11:04.519Z,100503.88
2022-11-22T11:13:46.258Z,100442.66
2022-11-22T11:16:24.921Z,100518.97
2022-11-22T11:19:14.651Z,100536.63
2022-11-22T11:21:47.171Z,100543.72
2022-11-22T11:24:19.094Z,100551.59
2022-11-22T11:26:59.019Z,100561.56
2022-11-22T11:29:49.878Z,100546.44
2022-11-22T11:32:22.766Z,100538.16
2022-11-22T11:35:06.004Z,100563.22
2022-11-22T11:37:39.207Z,100470.72
2022-11-22T11:40:34.556Z,100549.38
2022-11-22T11:43:21.671Z,100550.75
2022-11-22T11:45:53.670Z,100539.84
2022-11-22T11:48:30.378Z,100559.94
2022-11-22T11:51:18.712Z,100539.28
2022-11-22T11:53:58.632Z,100563.66
2022-11-22T11:56:35.376Z,100575.28
2022-11-22T11:59:13.863Z,100588.25
2022-11-22T12:02:07.070Z,100607.16
2022-11-22T12:04:49.983Z,100582.50
2022-11-22T12:07:32.361Z,100601.19
2022-11-22T12:10:24.872Z,100627.38
2022-11-22T12:13:04.205Z,100622.63
2022-11-22T12:15:47.941Z,100625.56
2022-11-22T12:18:37.339Z,100630.09
2022-11-22T12:21:28.425Z,100644.03
2022-11-22T12:25:02.866Z,100642.78
2022-11-22T12:27:18.288Z,100634.50
2022-11-22T12:29:49.798Z,100641.09
2022-11-22T12:32:59.954Z,100648.25
2022-11-22T12:35:43.075Z,100580.25
2022-11-22T12:38:25.300Z,100660.69
2022-11-22T12:41:02.354Z,100666.28
2022-11-22T12:43:49.399Z,100668.16
2022-11-22T12:46:46.128Z,100676.91
2022-11-22T12:49:31.903Z,100582.38
2022-11-22T12:52:44.956Z,100669.66
2022-11-22T12:55:36.916Z,100565.59
2022-11-22T12:58:37.219Z,100671.94
2022-11-22T13:01:22.755Z,100645.34
2022-11-22T13:04:06.339Z,100677.31
2022-11-22T13:06:59.502Z,100669.66
2022-11-22T13:09:37.444Z,100632.91
2022-11-22T13:12:14.127Z,100667.09
2022-11-22T13:14:51.453Z,100654.25
2022-11-22T13:17:24.761Z,100663.38
2022-11-22T13:20:11.519Z,100657.34
2022-11-22T13:22:58.701Z,100649.28
2022-11-22T13:25:39.154Z,100666.47
2022-11-22T13:28:20.543Z,100662.94
2022-11-22T13:31:12.177Z,100666.94
2022-11-22T13:33:56.543Z,100588.56
2022-11-22T13:36:34.073Z,100673.13
2022-11-22T13:39:14.237Z,100689.72
2022-11-22T13:42:04.817Z,100689.72
2022-11-22T13:44:40.745Z,100546.94
2022-11-22T13:47:15.147Z,100691.38
2022-11-22T13:49:50.271Z,100686.78
2022-11-22T13:52:22.235Z,100694.75
2022-11-22T13:54:58.510Z,100694.75
2022-11-22T13:57:37.068Z,100712.16
2022-11-22T14:00:17.274Z,100696.59
2022-11-22T14:03:15.250Z,100708.31
2022-11-22T14:05:51.520Z,100712.66
2022-11-22T14:08:45.519Z,100688.59
2022-11-22T14:11:22.745Z,100708.97
2022-11-22T14:14:23.665Z,100658.41
2022-11-22T14:17:07.651Z,100646.97
2022-11-22T14:19:58.774Z,100659.66
2022-11-22T14:22:46.214Z,100705.28
2022-11-22T14:25:53.387Z,100635.59
2022-11-22T14:28:34.000Z,100706.97
2022-11-22T14:31:35.357Z,100659.22
2022-11-22T14:34:23.083Z,100700.97
2022-11-22T14:37:12.618Z,100719.63
2022-11-22T14:39:54.689Z,100716.94
2022-11-22T14:42:38.403Z,100722.13
2022-11-22T14:45:12.836Z,100722.75
2022-11-22T14:47:53.883Z,100668.34
2022-11-22T14:50:39.375Z,100723.97
2022-11-22T14:53:22.576Z,100735.16
2022-11-22T14:56:05.472Z,100736.00
2022-11-22T14:58:45.807Z,100716.47
2022-11-22T15:01:41.708Z,100734.56
2022-11-22T15:09:11.064Z,100731.38
2022-11-22T15:09:17.860Z,100728.53
2022-11-22T15:10:42.628Z,100734.72
2022-11-22T15:13:33.385Z,100649.16
2022-11-22T15:59:48.415Z,100708.34
2022-11-22T16:02:24.087Z,100707.75
2022-11-22T16:06:07.663Z,100617.47
2022-11-22T16:07:51.174Z,100651.75
2022-11-22T16:10:34.626Z,100614.38
2022-11-22T16:13:23.764Z,100689.91
2022-11-22T16:16:13.067Z,100691.97
2022-11-22T16:18:45.617Z,100590.72
2022-11-22T16:21:24.034Z,100692.19
2022-11-22T16:24:18.065Z,100677.91
2022-11-22T16:26:58.063Z,100629.72
2022-11-22T16:29:33.485Z,100681.00
2022-11-22T16:32:13.786Z,100629.34
2022-11-22T16:34:46.922Z,100676.25
2022-11-22T16:37:41.373Z,100666.69
2022-11-22T16:40:16.592Z,100649.66
2022-11-22T16:42:47.754Z,100671.69
2022-11-22T16:45:22.273Z,100585.34
2022-11-22T16:48:24.114Z,100673.75
2022-11-22T16:50:47.849Z,100683.28
2022-11-22T16:53:27.501Z,100679.13
2022-11-22T16:55:58.594Z,100669.16
2022-11-22T16:58:31.178Z,100592.38
2022-11-22T17:01:04.464Z,100669.59
2022-11-22T17:03:40.378Z,100596.72
2022-11-22T17:06:23.854Z,100612.69
2022-11-22T17:08:57.180Z,100665.88
2022-11-22T17:11:31.493Z,100581.22
2022-11-22T17:14:02.790Z,100664.81
2022-11-22T17:16:34.007Z,100660.47
2022-11-22T17:19:05.557Z,100655.47
2022-11-22T17:21:38.060Z,100661.22
2022-11-22T17:24:20.704Z,100588.22
2022-11-22T17:26:51.884Z,100666.06
2022-11-22T17:32:15.180Z,100662.97
2022-11-22T17:34:46.265Z,100657.97
2022-11-22T17:37:17.328Z,100664.63
2022-11-22T17:39:52.465Z,100663.75
2022-11-22T17:42:25.428Z,100650.50
2022-11-22T17:44:56.542Z,100583.66
2022-11-22T17:47:29.014Z,100642.84
2022-11-22T17:50:00.144Z,100656.50
2022-11-22T17:52:31.576Z,100642.19
2022-11-22T17:55:06.185Z,100650.06
2022-11-22T17:57:39.462Z,100621.47
2022-11-22T18:00:11.450Z,100623.06
2022-11-22T18:02:43.404Z,100625.41
2022-11-22T18:05:15.025Z,100626.00
2022-11-22T18:07:46.231Z,100614.38
2022-11-22T18:10:17.430Z,100630.56
2022-11-22T18:13:13.455Z,100624.75
2022-11-22T18:15:40.634Z,100590.72
2022-11-22T18:18:21.933Z,100611.38
2022-11-22T18:21:02.143Z,100598.41
2022-11-22T18:23:38.568Z,100609.81
2022-11-22T18:31:54.903Z,100589.91
2022-11-22T18:34:26.566Z,100583.88
2022-11-22T18:37:03.189Z,100589.06
2022-11-22T18:39:40.228Z,100509.84
2022-11-22T18:42:16.346Z,100562.09
2022-11-22T18:44:47.492Z,100590.31
2022-11-22T18:47:18.634Z,100521.25
2022-11-22T18:49:49.879Z,100557.53
2022-11-22T18:52:24.383Z,100591.97
2022-11-22T18:54:57.623Z,100596.94
2022-11-22T18:57:29.259Z,100567.50
2022-11-22T19:00:00.590Z,100573.72
2022-11-22T19:02:31.905Z,100594.03
2022-11-22T19:05:03.498Z,100570.38
2022-11-22T19:07:34.620Z,100578.28
2022-11-22T19:10:06.314Z,100579.72
2022-11-22T19:12:38.392Z,100591.13
2022-11-22T19:15:10.132Z,100587.81
2022-11-22T19:17:41.897Z,100585.34
2022-11-22T19:20:39.386Z,100584.50
2022-11-22T19:23:06.387Z,100578.50
2022-11-22T19:25:37.129Z,100577.38
2022-11-22T19:28:08.227Z,100570.00
2022-11-22T19:30:42.918Z,100561.06
2022-11-22T19:33:17.047Z,100543.63
2022-11-22T19:36:02.617Z,100543.00
2022-11-22T19:38:34.081Z,100563.97
2022-11-22T19:41:10.434Z,100560.44
2022-11-22T19:43:41.824Z,100566.44
2022-11-22T19:46:14.176Z,100559.41
2022-11-22T19:48:47.248Z,100561.16
2022-11-22T19:51:18.710Z,100543.84
2022-11-22T19:53:50.672Z,100547.59
2022-11-22T19:56:22.873Z,100464.19
2022-11-22T19:58:56.283Z,100458.16
2022-11-22T20:01:29.418Z,100537.66
2022-11-22T20:04:05.003Z,100460.47
2022-11-22T20:06:37.838Z,100490.31
2022-11-22T20:09:12.465Z,100525.38
2022-11-22T20:11:45.721Z,100545.09
2022-11-22T20:14:16.789Z,100522.69
2022-11-22T20:16:47.930Z,100536.81
2022-11-22T20:19:19.071Z,100516.25
2022-11-22T20:21:51.113Z,100512.97
2022-11-22T20:24:22.631Z,100508.63
2022-11-22T20:26:53.681Z,100522.31
2022-11-22T20:29:26.463Z,100516.06
2022-11-22T20:31:58.196Z,100522.31
2022-11-22T20:34:34.451Z,100517.72
2022-11-22T20:37:05.667Z,100536.78
2022-11-22T20:39:38.501Z,100540.94
2022-11-22T20:42:33.785Z,100536.78
2022-11-22T20:45:01.423Z,100541.53
2022-11-22T20:47:33.369Z,100532.66
2022-11-22T20:50:05.015Z,100540.53
2022-11-22T20:52:36.268Z,100519.38
2022-11-22T20:55:07.786Z,100535.34
2022-11-22T20:57:39.872Z,100526.00
2022-11-22T21:00:12.457Z,100546.34
2022-11-22T21:02:43.570Z,100541.97
2022-11-22T21:05:14.849Z,100526.78
2022-11-22T21:07:46.609Z,100559.78
2022-11-22T21:10:17.905Z,100538.66
2022-11-22T21:12:48.949Z,100543.00
2022-11-22T21:15:20.507Z,100536.38
2022-11-22T21:18:23.206Z,100539.69
2022-11-22T21:20:42.925Z,100550.03
2022-11-22T21:23:15.107Z,100454.59
2022-11-22T21:25:46.213Z,100541.31
2022-11-22T21:28:17.426Z,100549.84
2022-11-22T21:30:48.518Z,100551.50
2022-11-22T21:33:19.596Z,100555.00
2022-11-22T21:35:50.895Z,100544.41
2022-11-22T21:38:30.982Z,100559.97
2022-11-22T21:41:24.383Z,100567.66
2022-11-22T21:43:55.778Z,100577.84
2022-11-22T21:46:26.863Z,100572.00
2022-11-22T21:48:58.585Z,100579.50
2022-11-22T21:51:29.535Z,100556.63
2022-11-22T21:54:05.114Z,100577.38
2022-11-22T21:56:36.888Z,100564.47
2022-11-22T21:59:08.086Z,100578.44
2022-11-22T22:01:39.253Z,100584.00
2022-11-22T22:04:10.384Z,100587.31
2022-11-22T22:06:45.818Z,100592.69
2022-11-22T22:09:17.242Z,100600.97
2022-11-22T22:11:49.442Z,100583.50
2022-11-22T22:14:20.735Z,100601.53
2022-11-22T22:16:52.750Z,100593.66
2022-11-22T22:19:23.861Z,100612.72
2022-11-22T22:21:55.122Z,100614.16
2022-11-22T22:24:26.804Z,100606.25
2022-11-22T22:26:57.992Z,100617.03
2022-11-22T22:29:29.529Z,100584.66
2022-11-22T22:32:01.917Z,100622.41
2022-11-22T22:34:37.595Z,100612.69
2022-11-22T22:37:08.661Z,100583.16
2022-11-22T22:39:39.919Z,100630.28
2022-11-22T22:42:11.424Z,100637.72
2022-11-22T22:44:42.630Z,100625.84
2022-11-22T22:47:14.169Z,100640.59
2022-11-22T22:49:45.287Z,100640.19
2022-11-22T22:52:16.598Z,100641.84
2022-11-22T22:54:47.739Z,100636.19
2022-11-22T22:57:18.870Z,100653.06
2022-11-22T22:59:49.882Z,100638.06
2022-11-22T23:02:21.086Z,100654.47
2022-11-22T23:04:52.524Z,100649.31
2022-11-22T23:07:23.813Z,100661.16
2022-11-22T23:09:55.355Z,100662.22
2022-11-22T23:12:26.384Z,100665.31
2022-11-22T23:14:57.493Z,100659.56
2022-11-22T23:17:28.815Z,100667.94
2022-11-22T23:20:00.428Z,100669.00
2022-11-22T23:22:31.871Z,100665.66
2022-11-22T23:25:03.192Z,100677.31
2022-11-22T23:27:34.634Z,100656.56
2022-11-22T23:30:06.758Z,100677.78
2022-11-22T23:32:38.302Z,100692.72
2022-11-22T23:35:09.918Z,100671.97
2022-11-22T23:37:41.441Z,100697.75
2022-11-22T23:40:13.161Z,100685.13
2022-11-22T23:42:44.270Z,100676.19
2022-11-22T23:45:15.477Z,100699.47
2022-11-22T23:47:46.722Z,100699.66
2022-11-22T23:50:18.238Z,100706.94
2022-11-22T23:52:49.677Z,100697.41
2022-11-22T23:55:20.965Z,100680.41
2022-11-22T23:57:52.654Z,100703.00
